createdAt,value
2022-10-17T00:00:42.691Z,97524.66
2022-10-17T00:03:11.944Z,97517.63
2022-10-17T00:05:46.706Z,97529.66
2022-10-17T00:08:20.389Z,97534.63
2022-10-17T00:10:58.569Z,97545.56
2022-10-17T00:13:27.451Z,97544.13
2022-10-17T00:15:56.116Z,97544.84
2022-10-17T00:18:24.886Z,97540.88
2022-10-17T00:20:53.672Z,97538.94
2022-10-17T00:23:32.248Z,97542.69
2022-10-17T00:26:01.792Z,97546.25
2022-10-17T00:28:31.223Z,97559.59
2022-10-17T00:31:24.193Z,97557.75
2022-10-17T00:33:53.684Z,97547.00
2022-10-17T00:36:25.435Z,97539.44
2022-10-17T00:38:59.491Z,97541.47
2022-10-17T00:41:35.178Z,97547.09
2022-10-17T00:44:06.850Z,97548.88
2022-10-17T00:46:37.755Z,97545.72
2022-10-17T00:49:10.477Z,97556.91
2022-10-17T00:51:59.066Z,97552.00
2022-10-17T00:54:34.035Z,97556.88
2022-10-17T00:57:03.188Z,97551.81
2022-10-17T00:59:35.773Z,97556.75
2022-10-17T01:02:08.889Z,97549.91
2022-10-17T01:04:38.125Z,97558.69
2022-10-17T01:07:09.781Z,97562.09
2022-10-17T01:09:40.279Z,97554.16
2022-10-17T01:12:18.646Z,97559.72
2022-10-17T01:15:01.148Z,97553.69
2022-10-17T01:17:38.519Z,97557.00
2022-10-17T01:21:05.880Z,97548.97
2022-10-17T01:24:13.323Z,97554.31
2022-10-17T01:27:28.031Z,97560.88
2022-10-17T01:30:17.721Z,97543.81
2022-10-17T01:32:51.204Z,97540.88
2022-10-17T01:35:38.572Z,97534.56
2022-10-17T01:38:12.964Z,97536.38
2022-10-17T01:40:46.221Z,97542.72
2022-10-17T01:43:20.868Z,97538.59
2022-10-17T01:46:07.100Z,97536.03
2022-10-17T01:48:42.372Z,97529.38
2022-10-17T01:51:15.368Z,97533.72
2022-10-17T01:53:51.433Z,97533.59
2022-10-17T01:56:22.323Z,97543.59
2022-10-17T01:58:55.034Z,97538.94
2022-10-17T02:01:25.666Z,97533.59
2022-10-17T02:03:55.834Z,97531.72
2022-10-17T02:06:27.004Z,97530.47
2022-10-17T02:08:55.196Z,97538.03
2022-10-17T02:11:26.074Z,97539.53
2022-10-17T02:16:56.538Z,97536.59
2022-10-17T02:19:51.263Z,97533.53
2022-10-17T02:22:32.178Z,97542.38
2022-10-17T02:25:05.085Z,97531.03
2022-10-17T02:27:42.174Z,97540.63
2022-10-17T02:30:18.438Z,97549.16
2022-10-17T02:32:59.423Z,97557.81
2022-10-17T02:35:34.184Z,97554.59
2022-10-17T02:38:03.807Z,97558.59
2022-10-17T02:40:33.487Z,97551.88
2022-10-17T02:43:01.933Z,97546.78
2022-10-17T02:45:35.964Z,97534.75
2022-10-17T02:48:07.644Z,97543.91
2022-10-17T02:50:57.033Z,97541.28
2022-10-17T02:53:32.004Z,97547.59
2022-10-17T02:56:04.376Z,97543.53
2022-10-17T02:58:34.715Z,97532.44
2022-10-17T03:01:03.521Z,97534.69
2022-10-17T03:03:33.721Z,97540.38
2022-10-17T03:06:21.433Z,97548.09
2022-10-17T03:08:49.628Z,97550.19
2022-10-17T03:11:17.813Z,97546.50
2022-10-17T03:13:45.985Z,97558.56
2022-10-17T03:16:40.315Z,97554.88
2022-10-17T03:19:08.806Z,97568.50
2022-10-17T03:21:47.529Z,97559.53
2022-10-17T03:24:15.878Z,97573.00
2022-10-17T03:26:44.085Z,97567.69
2022-10-17T03:29:12.367Z,97574.66
2022-10-17T03:31:40.605Z,97566.53
2022-10-17T03:34:16.761Z,97571.81
2022-10-17T03:36:45.071Z,97570.50
2022-10-17T03:39:14.855Z,97582.19
2022-10-17T03:41:43.064Z,97584.25
2022-10-17T03:44:11.244Z,97582.25
2022-10-17T03:46:40.576Z,97583.69
2022-10-17T03:49:10.636Z,97574.84
2022-10-17T03:51:51.878Z,97578.41
2022-10-17T03:54:22.736Z,97580.19
2022-10-17T03:56:53.055Z,97579.91
2022-10-17T03:59:21.319Z,97588.06
2022-10-17T04:01:49.525Z,97588.84
2022-10-17T04:04:17.711Z,97593.00
2022-10-17T04:06:57.880Z,97592.78
2022-10-17T04:09:27.554Z,97604.25
2022-10-17T04:11:55.891Z,97603.91
2022-10-17T04:14:24.104Z,97600.38
2022-10-17T04:16:53.487Z,97594.50
2022-10-17T04:19:26.479Z,97604.75
2022-10-17T04:21:54.725Z,97602.34
2022-10-17T04:24:22.948Z,97608.75
2022-10-17T04:26:55.391Z,97608.53
2022-10-17T04:29:26.824Z,97607.19
2022-10-17T04:31:56.072Z,97623.25
2022-10-17T04:34:24.359Z,97617.50
2022-10-17T04:36:59.775Z,97615.50
2022-10-17T04:39:28.333Z,97620.03
2022-10-17T04:42:00.232Z,97621.06
2022-10-17T04:44:31.038Z,97622.50
2022-10-17T04:46:59.233Z,97623.50
2022-10-17T04:49:27.538Z,97628.72
2022-10-17T04:51:55.875Z,97626.00
2022-10-17T04:54:24.368Z,97635.31
2022-10-17T04:56:52.563Z,97628.59
2022-10-17T04:59:22.207Z,97628.44
2022-10-17T05:01:50.868Z,97629.59
2022-10-17T05:04:22.367Z,97617.22
2022-10-17T05:06:52.928Z,97617.72
2022-10-17T05:09:21.766Z,97630.84
2022-10-17T05:11:50.066Z,97639.53
2022-10-17T05:14:21.794Z,97638.66
2022-10-17T05:17:03.315Z,97641.47
2022-10-17T05:19:34.379Z,97634.59
2022-10-17T05:22:02.610Z,97638.22
2022-10-17T05:24:30.947Z,97644.88
2022-10-17T05:27:17.965Z,97628.53
2022-10-17T05:29:47.871Z,97633.00
2022-10-17T05:32:16.975Z,97635.69
2022-10-17T05:34:45.275Z,97631.72
2022-10-17T05:37:13.556Z,97635.28
2022-10-17T05:39:41.738Z,97634.25
2022-10-17T05:42:09.929Z,97635.13
2022-10-17T05:44:48.933Z,97632.19
2022-10-17T05:47:17.171Z,97649.09
2022-10-17T05:49:50.001Z,97648.91
2022-10-17T05:52:20.445Z,97659.59
2022-10-17T05:54:48.682Z,97651.25
2022-10-17T05:57:17.019Z,97662.72
2022-10-17T05:59:45.348Z,97660.09
2022-10-17T06:02:15.320Z,97669.16
2022-10-17T06:04:46.011Z,97668.63
2022-10-17T06:07:14.363Z,97683.75
2022-10-17T06:09:57.989Z,97674.63
2022-10-17T06:12:26.755Z,97684.84
2022-10-17T06:15:10.696Z,97701.41
2022-10-17T06:17:46.089Z,97691.81
2022-10-17T06:20:14.483Z,97702.66
2022-10-17T06:22:43.156Z,97704.06
2022-10-17T06:25:11.643Z,97702.72
2022-10-17T06:27:39.946Z,97720.91
2022-10-17T06:30:09.765Z,97717.16
2022-10-17T06:32:37.947Z,97714.16
2022-10-17T06:35:09.055Z,97726.66
2022-10-17T06:37:37.769Z,97729.53
2022-10-17T06:40:09.014Z,97728.44
2022-10-17T06:42:37.205Z,97733.50
2022-10-17T06:45:06.284Z,97728.31
2022-10-17T06:47:39.503Z,97737.84
2022-10-17T06:50:10.585Z,97739.00
2022-10-17T06:52:39.428Z,97745.97
2022-10-17T06:55:08.534Z,97744.38
2022-10-17T06:57:36.765Z,97753.91
2022-10-17T07:00:07.029Z,97758.50
2022-10-17T07:02:35.223Z,97752.81
2022-10-17T07:05:04.459Z,97762.75
2022-10-17T07:07:35.088Z,97761.03
2022-10-17T07:10:08.457Z,97765.69
2022-10-17T07:12:37.177Z,97769.03
2022-10-17T07:15:06.577Z,97770.66
2022-10-17T07:17:45.508Z,97766.72
2022-10-17T07:20:20.699Z,97769.06
2022-10-17T07:22:50.372Z,97769.03
2022-10-17T07:25:18.723Z,97768.44
2022-10-17T07:27:46.982Z,97783.03
2022-10-17T07:30:16.280Z,97779.41
2022-10-17T07:32:46.811Z,97784.22
2022-10-17T07:35:16.209Z,97792.13
2022-10-17T07:37:44.452Z,97790.56
2022-10-17T07:40:15.021Z,97791.78
2022-10-17T07:42:43.260Z,97789.47
2022-10-17T07:45:12.139Z,97794.28
2022-10-17T07:47:45.110Z,97808.78
2022-10-17T07:50:13.569Z,97808.41
2022-10-17T07:52:43.209Z,97801.97
2022-10-17T07:55:13.001Z,97819.31
2022-10-17T07:57:41.255Z,97811.91
2022-10-17T08:00:11.179Z,97813.50
2022-10-17T08:02:39.557Z,97809.97
2022-10-17T08:05:09.739Z,97800.47
2022-10-17T08:07:38.035Z,97818.66
2022-10-17T08:12:44.771Z,97815.31
2022-10-17T08:15:13.099Z,97810.53
2022-10-17T08:17:41.319Z,97818.25
2022-10-17T08:20:16.015Z,97813.72
2022-10-17T08:22:44.668Z,97807.69
2022-10-17T08:25:13.095Z,97812.25
2022-10-17T08:27:41.264Z,97811.06
2022-10-17T08:30:13.355Z,97827.00
2022-10-17T08:32:41.768Z,97819.75
2022-10-17T08:35:10.954Z,97812.63
2022-10-17T08:37:40.751Z,97821.25
2022-10-17T08:40:13.555Z,97821.47
2022-10-17T08:43:06.004Z,97817.06
2022-10-17T08:45:40.916Z,97827.34
2022-10-17T08:48:14.717Z,97820.03
2022-10-17T08:50:47.612Z,97823.31
2022-10-17T08:53:22.587Z,97830.13
2022-10-17T08:55:54.756Z,97828.56
2022-10-17T08:58:25.071Z,97823.41
2022-10-17T09:01:11.937Z,97821.63
2022-10-17T09:03:58.827Z,97831.09
2022-10-17T09:06:30.800Z,97824.16
2022-10-17T09:09:16.905Z,97821.50
2022-10-17T09:12:01.891Z,97827.44
2022-10-17T09:14:58.936Z,97833.91
2022-10-17T09:17:40.936Z,97836.84
2022-10-17T09:20:14.166Z,97827.00
2022-10-17T09:22:50.221Z,97836.00
2022-10-17T09:25:21.612Z,97837.13
2022-10-17T09:27:53.703Z,97835.81
2022-10-17T09:30:45.162Z,97834.81
2022-10-17T09:33:34.293Z,97833.44
2022-10-17T09:36:07.628Z,97833.50
2022-10-17T09:38:43.370Z,97832.59
2022-10-17T09:41:43.720Z,97838.94
2022-10-17T09:44:22.791Z,97843.41
2022-10-17T09:47:24.542Z,97832.19
2022-10-17T09:49:54.226Z,97840.97
2022-10-17T09:52:28.859Z,97832.75
2022-10-17T09:55:02.600Z,97835.38
2022-10-17T09:57:54.749Z,97829.38
2022-10-17T10:00:26.138Z,97829.78
2022-10-17T10:03:17.325Z,97826.81
2022-10-17T10:06:03.431Z,97831.56
2022-10-17T10:08:35.281Z,97831.69
2022-10-17T10:11:06.548Z,97836.03
2022-10-17T10:13:36.823Z,97845.16
2022-10-17T10:16:19.118Z,97836.19
2022-10-17T10:18:50.126Z,97832.94
2022-10-17T10:21:23.140Z,97844.75
2022-10-17T10:24:14.215Z,97832.34
2022-10-17T10:26:46.366Z,97840.47
2022-10-17T10:29:28.981Z,97838.44
2022-10-17T10:31:58.421Z,97840.25
2022-10-17T10:34:31.341Z,97839.25
2022-10-17T10:37:04.742Z,97841.53
2022-10-17T10:39:39.227Z,97846.81
2022-10-17T10:42:28.069Z,97841.50
2022-10-17T10:45:02.443Z,97838.97
2022-10-17T10:47:32.504Z,97828.19
2022-10-17T10:50:25.194Z,97839.13
2022-10-17T10:53:11.012Z,97831.22
2022-10-17T10:55:48.051Z,97836.09
2022-10-17T10:58:29.319Z,97834.69
2022-10-17T11:01:01.481Z,97824.66
2022-10-17T11:03:36.231Z,97836.59
2022-10-17T11:06:14.481Z,97834.34
2022-10-17T11:08:50.159Z,97824.75
2022-10-17T11:11:26.953Z,97818.13
2022-10-17T11:14:05.168Z,97825.22
2022-10-17T11:16:41.068Z,97810.19
2022-10-17T11:19:16.089Z,97825.59
2022-10-17T11:21:51.937Z,97813.25
2022-10-17T11:24:26.809Z,97809.72
2022-10-17T11:27:01.492Z,97809.75
2022-10-17T11:29:32.597Z,97804.22
2022-10-17T11:32:05.877Z,97798.88
2022-10-17T11:34:39.655Z,97808.75
2022-10-17T11:37:17.152Z,97798.72
2022-10-17T11:39:53.273Z,97794.84
2022-10-17T11:42:26.333Z,97797.16
2022-10-17T11:45:01.878Z,97796.69
2022-10-17T11:47:39.773Z,97793.91
2022-10-17T11:53:17.837Z,97797.97
2022-10-17T11:55:48.883Z,97801.22
2022-10-17T11:58:32.748Z,97795.94
2022-10-17T12:01:15.128Z,97789.53
2022-10-17T12:04:20.564Z,97788.88
2022-10-17T12:07:03.367Z,97792.34
2022-10-17T12:09:46.013Z,97792.19
2022-10-17T12:12:29.839Z,97788.25
2022-10-17T12:15:31.947Z,97787.88
2022-10-17T12:18:03.013Z,97784.88
2022-10-17T12:20:36.794Z,97781.28
2022-10-17T12:23:28.755Z,97779.59
2022-10-17T12:26:04.837Z,97777.66
2022-10-17T12:28:41.640Z,97777.47
2022-10-17T12:31:32.684Z,97771.00
2022-10-17T12:34:04.686Z,97770.47
2022-10-17T12:36:42.237Z,97771.75
2022-10-17T12:39:52.532Z,97767.59
2022-10-17T12:42:54.633Z,97759.50
2022-10-17T12:45:51.498Z,97758.25
2022-10-17T12:49:02.071Z,97757.56
2022-10-17T12:52:18.110Z,97752.66
2022-10-17T12:55:00.168Z,97757.34
2022-10-17T12:57:49.622Z,97762.22
2022-10-17T13:00:25.210Z,97761.06
2022-10-17T13:02:57.258Z,97759.75
2022-10-17T13:05:33.257Z,97755.53
2022-10-17T13:08:08.097Z,97752.75
2022-10-17T13:10:41.820Z,97748.38
2022-10-17T13:13:17.678Z,97736.63
2022-10-17T13:16:08.776Z,97750.34
2022-10-17T13:18:37.168Z,97739.31
2022-10-17T13:21:16.286Z,97744.50
2022-10-17T13:23:45.193Z,97743.16
2022-10-17T13:26:20.034Z,97745.06
2022-10-17T13:29:02.293Z,97750.41
2022-10-17T13:31:33.627Z,97752.75
2022-10-17T13:34:04.595Z,97740.47
2022-10-17T13:36:36.258Z,97750.41
2022-10-17T13:39:12.442Z,97746.63
2022-10-17T13:41:43.029Z,97754.41
2022-10-17T13:44:16.352Z,97746.09
2022-10-17T13:46:45.274Z,97748.59
2022-10-17T13:49:25.758Z,97746.63
2022-10-17T13:51:59.152Z,97747.72
2022-10-17T13:54:37.571Z,97739.03
2022-10-17T13:57:07.839Z,97745.09
2022-10-17T13:59:42.087Z,97739.47
2022-10-17T14:02:17.097Z,97737.88
2022-10-17T14:05:15.080Z,97743.66
2022-10-17T14:08:05.708Z,97733.66
2022-10-17T14:10:31.886Z,97740.09
2022-10-17T14:13:01.842Z,97740.25
2022-10-17T14:15:32.353Z,97733.47
2022-10-17T14:18:07.318Z,97744.31
2022-10-17T14:23:37.231Z,97733.88
2022-10-17T14:26:16.306Z,97735.13
2022-10-17T14:28:46.643Z,97738.50
2022-10-17T14:31:30.122Z,97740.72
2022-10-17T14:33:58.793Z,97745.13
2022-10-17T14:36:39.872Z,97738.56
2022-10-17T14:39:23.488Z,97739.78
2022-10-17T14:41:53.344Z,97748.16
2022-10-17T14:44:26.979Z,97743.00
2022-10-17T14:47:05.943Z,97741.13
2022-10-17T14:49:42.665Z,97743.47
2022-10-17T14:52:26.508Z,97735.03
2022-10-17T14:54:56.981Z,97739.84
2022-10-17T14:57:29.465Z,97738.97
2022-10-17T14:59:58.816Z,97736.53
2022-10-17T15:02:31.633Z,97747.16
2022-10-17T15:05:13.236Z,97737.97
2022-10-17T15:07:48.174Z,97737.34
2022-10-17T15:10:28.577Z,97743.56
2022-10-17T15:13:26.153Z,97732.69
2022-10-17T15:15:52.517Z,97739.63
2022-10-17T15:18:21.961Z,97748.03
2022-10-17T15:21:04.484Z,97743.78
2022-10-17T15:23:34.895Z,97751.16
2022-10-17T15:26:05.117Z,97738.03
2022-10-17T15:28:33.490Z,97749.47
2022-10-17T15:31:01.701Z,97753.72
2022-10-17T15:33:29.925Z,97738.72
2022-10-17T15:38:31.319Z,97747.19
2022-10-17T15:40:59.579Z,97749.69
2022-10-17T15:43:29.185Z,97744.91
2022-10-17T15:45:57.442Z,97752.19
2022-10-17T15:48:31.678Z,97750.50
2022-10-17T15:50:59.867Z,97757.28
2022-10-17T15:53:28.309Z,97761.78
2022-10-17T15:55:56.659Z,97762.25
2022-10-17T15:58:28.355Z,97761.28
2022-10-17T16:01:00.249Z,97764.63
2022-10-17T16:03:30.255Z,97764.63
2022-10-17T16:05:59.777Z,97771.31
2022-10-17T16:08:28.310Z,97768.75
2022-10-17T16:10:56.612Z,97760.81
2022-10-17T16:13:33.243Z,97767.47
2022-10-17T16:16:05.578Z,97756.53
2022-10-17T16:18:38.669Z,97774.75
2022-10-17T16:21:07.972Z,97769.22
2022-10-17T16:23:36.555Z,97771.75
2022-10-17T16:26:08.324Z,97770.69
2022-10-17T16:28:38.798Z,97775.69
2022-10-17T16:31:21.943Z,97782.03
2022-10-17T16:33:52.641Z,97789.50
2022-10-17T16:36:23.247Z,97797.59
2022-10-17T16:38:57.111Z,97784.28
2022-10-17T16:41:28.367Z,97786.47
2022-10-17T16:44:00.512Z,97782.03
2022-10-17T16:46:31.881Z,97784.00
2022-10-17T16:49:00.444Z,97797.84
2022-10-17T16:51:29.196Z,97807.44
2022-10-17T16:54:00.156Z,97803.59
2022-10-17T16:56:32.526Z,97800.50
2022-10-17T16:59:06.744Z,97801.63
2022-10-17T17:01:46.512Z,97821.13
2022-10-17T17:04:14.843Z,97821.09
2022-10-17T17:06:43.163Z,97832.78
2022-10-17T17:09:11.629Z,97830.38
2022-10-17T17:11:40.460Z,97834.34
2022-10-17T17:14:10.239Z,97842.84
2022-10-17T17:16:38.508Z,97840.69
2022-10-17T17:19:12.281Z,97841.28
2022-10-17T17:21:40.599Z,97847.38
2022-10-17T17:24:09.069Z,97849.47
2022-10-17T17:26:37.403Z,97851.53
2022-10-17T17:29:12.732Z,97843.53
2022-10-17T17:31:40.963Z,97854.03
2022-10-17T17:34:12.081Z,97859.44
2022-10-17T17:36:44.226Z,97856.38
2022-10-17T17:39:14.903Z,97854.56
2022-10-17T17:41:44.068Z,97862.56
2022-10-17T17:44:16.705Z,97859.84
2022-10-17T17:46:47.943Z,97865.16
2022-10-17T17:49:31.240Z,97870.44
2022-10-17T17:52:00.892Z,97868.25
2022-10-17T17:54:29.350Z,97867.38
2022-10-17T17:56:57.666Z,97882.03
2022-10-17T17:59:26.945Z,97874.38
2022-10-17T18:01:55.422Z,97886.78
2022-10-17T18:04:23.782Z,97882.69
2022-10-17T18:07:08.808Z,97881.84
2022-10-17T18:09:37.062Z,97890.13
2022-10-17T18:12:09.536Z,97907.69
2022-10-17T18:14:37.825Z,97912.97
2022-10-17T18:17:06.214Z,97906.88
2022-10-17T18:19:43.604Z,97889.44
2022-10-17T18:22:26.832Z,97892.81
2022-10-17T18:24:58.284Z,97898.00
2022-10-17T18:27:26.593Z,97893.84
2022-10-17T18:29:56.887Z,97894.56
2022-10-17T18:32:51.035Z,97889.75
2022-10-17T18:35:21.322Z,97889.44
2022-10-17T18:38:04.914Z,97907.25
2022-10-17T18:40:35.394Z,97905.38
2022-10-17T18:43:06.630Z,97898.53
2022-10-17T18:45:42.793Z,97909.66
2022-10-17T18:48:18.061Z,97907.03
2022-10-17T18:50:47.028Z,97898.25
2022-10-17T18:53:18.786Z,97903.91
2022-10-17T18:55:49.311Z,97904.09
2022-10-17T18:58:24.751Z,97902.69
2022-10-17T19:01:09.504Z,97893.22
2022-10-17T19:03:40.699Z,97894.16
2022-10-17T19:06:14.488Z,97899.94
2022-10-17T19:08:47.531Z,97898.38
2022-10-17T19:11:24.552Z,97892.72
2022-10-17T19:14:00.743Z,97894.88
2022-10-17T19:16:32.864Z,97889.75
2022-10-17T19:19:08.109Z,97895.06
2022-10-17T19:21:37.396Z,97882.44
2022-10-17T19:24:10.232Z,97881.59
2022-10-17T19:26:41.212Z,97887.13
2022-10-17T19:29:11.001Z,97892.78
2022-10-17T19:31:42.493Z,97897.88
2022-10-17T19:34:19.106Z,97910.94
2022-10-17T19:36:49.469Z,97915.50
2022-10-17T19:39:24.058Z,97915.69
2022-10-17T19:41:54.042Z,97921.69
2022-10-17T19:44:28.669Z,97921.53
2022-10-17T19:47:03.370Z,97927.41
2022-10-17T19:49:41.394Z,97925.00
2022-10-17T19:52:15.623Z,97921.56
2022-10-17T19:54:45.384Z,97915.97
2022-10-17T19:57:13.775Z,97918.44
2022-10-17T19:59:42.123Z,97919.63
2022-10-17T20:02:13.880Z,97917.34
2022-10-17T20:04:54.480Z,97922.16
2022-10-17T20:07:34.707Z,97918.88
2022-10-17T20:10:12.716Z,97913.03
2022-10-17T20:12:42.093Z,97921.75
2022-10-17T20:15:11.556Z,97925.75
2022-10-17T20:17:41.003Z,97927.47
2022-10-17T20:20:10.516Z,97931.38
2022-10-17T20:22:38.856Z,97936.75
2022-10-17T20:25:09.623Z,97944.84
2022-10-17T20:27:41.533Z,97933.97
2022-10-17T20:30:11.404Z,97939.94
2022-10-17T20:32:49.376Z,97941.03
2022-10-17T20:35:17.931Z,97937.25
2022-10-17T20:37:46.248Z,97938.72
2022-10-17T20:40:39.963Z,97936.34
2022-10-17T20:43:13.293Z,97944.84
2022-10-17T20:45:51.459Z,97955.22
2022-10-17T20:48:20.844Z,97968.19
2022-10-17T20:50:51.735Z,97958.72
2022-10-17T20:53:36.465Z,97952.25
2022-10-17T20:56:09.438Z,97956.38
2022-10-17T20:58:39.540Z,97953.16
2022-10-17T21:01:09.403Z,97952.06
2022-10-17T21:03:42.397Z,97945.84
2022-10-17T21:06:14.528Z,97952.94
2022-10-17T21:08:42.913Z,97959.75
2022-10-17T21:11:20.769Z,97951.09
2022-10-17T21:13:57.832Z,97948.13
2022-10-17T21:16:33.237Z,97937.69
2022-10-17T21:19:14.266Z,97949.81
2022-10-17T21:21:45.799Z,97956.28
2022-10-17T21:24:41.049Z,97948.72
2022-10-17T21:27:20.460Z,97955.50
2022-10-17T21:29:50.451Z,97945.19
2022-10-17T21:32:32.020Z,97957.94
2022-10-17T21:35:14.494Z,97951.47
2022-10-17T21:37:44.728Z,97955.22
2022-10-17T21:40:14.382Z,97968.44
2022-10-17T21:42:44.666Z,97940.91
2022-10-17T21:45:25.145Z,97939.44
2022-10-17T21:48:12.323Z,97957.09
2022-10-17T21:50:42.236Z,97947.34
2022-10-17T21:53:12.620Z,97950.53
2022-10-17T21:55:49.942Z,97947.34
2022-10-17T21:58:19.462Z,97950.69
2022-10-17T22:01:05.987Z,97934.88
2022-10-17T22:03:35.873Z,97946.63
2022-10-17T22:06:37.664Z,97941.97
2022-10-17T22:09:01.324Z,97945.38
2022-10-17T22:11:37.418Z,97955.03
2022-10-17T22:14:11.717Z,97954.97
2022-10-17T22:16:52.252Z,97950.41
2022-10-17T22:19:23.293Z,97946.78
2022-10-17T22:21:54.061Z,97953.78
2022-10-17T22:24:23.864Z,97950.06
2022-10-17T22:38:33.399Z,97948.81
2022-10-17T22:41:02.539Z,97949.13
2022-10-17T22:43:31.095Z,97959.25
2022-10-17T22:46:05.395Z,97950.69
2022-10-17T22:48:35.592Z,97957.06
2022-10-17T22:51:05.164Z,97953.09
2022-10-17T22:53:37.284Z,97946.25
2022-10-17T22:56:08.411Z,97951.50
2022-10-17T22:58:38.311Z,97957.09
2022-10-17T23:01:08.914Z,97941.44
2022-10-17T23:03:37.637Z,97949.13
2022-10-17T23:06:06.779Z,97956.50
2022-10-17T23:08:37.880Z,97950.53
2022-10-17T23:11:06.840Z,97951.13
2022-10-17T23:13:35.374Z,97954.00
2022-10-17T23:16:03.857Z,97953.88
2022-10-17T23:18:32.450Z,97947.72
2022-10-17T23:21:01.386Z,97942.69
2022-10-17T23:23:29.717Z,97940.22
2022-10-17T23:26:06.534Z,97944.41
2022-10-17T23:28:35.736Z,97944.84
2022-10-17T23:31:17.835Z,97947.13
2022-10-17T23:33:48.236Z,97945.38
2022-10-17T23:36:20.271Z,97942.19
2022-10-17T23:38:52.640Z,97941.16
2022-10-17T23:41:25.411Z,97947.19
2022-10-17T23:43:53.775Z,97947.88
2022-10-17T23:46:21.998Z,97941.44
2022-10-17T23:48:51.402Z,97932.56
2022-10-17T23:51:19.703Z,97931.06
2022-10-17T23:53:48.677Z,97934.31
2022-10-17T23:56:17.306Z,97940.50
2022-10-17T23:58:47.131Z,97949.44
